Sulina, Romania
Current Conditions -  °F | °C
As of 2:00 AM on Thursday 23 Oct 2014 (Local Time) from LRCK Reporting Station
Clear Clear  
Wind Chill: 59°   Ceiling: Unl
Heat Index: 59°   Visibility: 6mi
Dew Point: 57°   Wind: 6mph
Humidity: 94%   Direction: 160°SSE
Pressure: 29.59"   Gusts: NA
Location:  45.16°N, 29.66°E
Report Text: LRCK 222300Z 16005KT CAVOK 15/14 Q1002 NOSIG
Loading
Personal Weather Stations






























Interactive Weather Map
Tropical Storm Tracking
New forecast layout! Learn more

10-Day Weather Forecast

Advertisements
Track Severe Weather on mobile